createdAt,value
2019-02-12T00:00:57.953Z,22.23
2019-02-12T00:01:57.955Z,22.33
2019-02-12T00:02:57.956Z,22.33
2019-02-12T00:03:57.959Z,22.23
2019-02-12T00:04:57.965Z,22.23
2019-02-12T00:05:57.966Z,22.33
2019-02-12T00:06:57.969Z,22.33
2019-02-12T00:07:57.973Z,22.33
2019-02-12T00:08:57.977Z,22.33
2019-02-12T00:09:57.978Z,22.33
2019-02-12T00:10:57.980Z,22.23
2019-02-12T00:11:57.985Z,22.23
2019-02-12T00:12:57.995Z,22.23
2019-02-12T00:13:57.996Z,22.23
2019-02-12T00:14:57.996Z,22.23
2019-02-12T00:15:58.000Z,22.23
2019-02-12T00:16:58.001Z,22.33
2019-02-12T00:17:58.003Z,22.13
2019-02-12T00:18:58.011Z,22.33
2019-02-12T00:19:58.011Z,22.23
2019-02-12T00:20:58.011Z,22.23
2019-02-12T00:21:58.014Z,22.23
2019-02-12T00:22:58.065Z,22.23
2019-02-12T00:23:58.020Z,22.23
2019-02-12T00:24:58.024Z,22.13
2019-02-12T00:25:58.029Z,22.23
2019-02-12T00:26:58.031Z,22.23
2019-02-12T00:27:58.033Z,22.23
2019-02-12T00:28:58.035Z,22.23
2019-02-12T00:29:58.039Z,22.23
2019-02-12T00:30:58.042Z,22.23
2019-02-12T00:31:58.046Z,22.23
2019-02-12T00:32:58.048Z,22.23
2019-02-12T00:33:58.052Z,22.33
2019-02-12T00:34:58.055Z,22.23
2019-02-12T00:35:58.057Z,22.33
2019-02-12T00:36:58.061Z,22.42
2019-02-12T00:37:58.063Z,22.33
2019-02-12T00:38:58.065Z,22.23
2019-02-12T00:39:58.075Z,22.23
2019-02-12T00:40:58.072Z,22.23
2019-02-12T00:41:58.077Z,22.23
2019-02-12T00:42:58.078Z,22.23
2019-02-12T00:43:58.081Z,22.33
2019-02-12T00:44:58.084Z,22.13
2019-02-12T00:45:58.087Z,22.33
2019-02-12T00:46:58.089Z,22.23
2019-02-12T00:47:58.093Z,22.33
2019-02-12T00:48:58.094Z,22.33
2019-02-12T00:49:58.100Z,22.33
2019-02-12T00:50:58.101Z,22.23
2019-02-12T00:51:58.105Z,22.23
2019-02-12T00:52:58.108Z,22.23
2019-02-12T00:53:58.115Z,22.23
2019-02-12T00:54:58.114Z,22.33
2019-02-12T00:55:58.131Z,22.33
2019-02-12T00:56:58.126Z,22.23
2019-02-12T00:57:58.128Z,22.33
2019-02-12T00:58:58.129Z,22.23
2019-02-12T00:59:58.130Z,22.33
2019-02-12T01:00:58.132Z,22.33
2019-02-12T01:01:58.136Z,22.23
2019-02-12T01:02:58.151Z,22.33
2019-02-12T01:03:58.146Z,22.33
2019-02-12T01:04:58.147Z,22.23
2019-02-12T01:05:58.149Z,22.23
2019-02-12T01:06:58.156Z,22.33
2019-02-12T01:07:58.154Z,22.33
2019-02-12T01:08:58.168Z,22.52
2019-02-12T01:09:58.160Z,22.42
2019-02-12T01:10:58.162Z,22.42
2019-02-12T01:11:58.167Z,22.33
2019-02-12T01:12:58.170Z,22.33
2019-02-12T01:13:58.172Z,22.33
2019-02-12T01:14:58.177Z,22.42
2019-02-12T01:15:58.178Z,22.42
2019-02-12T01:16:58.181Z,22.42
2019-02-12T01:17:58.186Z,22.23
2019-02-12T01:18:58.187Z,22.42
2019-02-12T01:19:58.190Z,22.42
2019-02-12T01:20:58.207Z,22.23
2019-02-12T01:21:58.208Z,22.33
2019-02-12T01:22:58.210Z,22.33
2019-02-12T01:23:58.206Z,22.33
2019-02-12T01:24:58.205Z,22.33
2019-02-12T01:25:58.209Z,22.42
2019-02-12T01:26:58.221Z,22.42
2019-02-12T01:27:58.221Z,22.13
2019-02-12T01:28:58.238Z,22.33
2019-02-12T01:29:58.222Z,22.33
2019-02-12T01:30:58.224Z,22.33
2019-02-12T01:31:58.228Z,22.33
2019-02-12T01:32:58.229Z,22.33
2019-02-12T01:33:58.233Z,22.33
2019-02-12T01:34:58.239Z,22.23
2019-02-12T01:35:58.240Z,22.42
2019-02-12T01:36:58.241Z,22.42
2019-02-12T01:37:58.251Z,22.42
2019-02-12T01:38:58.248Z,22.42
2019-02-12T01:39:58.250Z,22.33
2019-02-12T01:40:58.254Z,22.42
2019-02-12T01:41:58.258Z,22.42
2019-02-12T01:42:58.260Z,22.33
2019-02-12T01:43:58.263Z,22.42
2019-02-12T01:44:58.267Z,22.42
2019-02-12T01:45:58.272Z,22.42
2019-02-12T01:46:58.271Z,22.52
2019-02-12T01:47:58.276Z,22.42
2019-02-12T01:48:58.277Z,22.42
2019-02-12T01:49:58.281Z,22.42
2019-02-12T01:50:58.283Z,22.23
2019-02-12T01:51:58.286Z,22.23
2019-02-12T01:52:58.287Z,22.52
2019-02-12T01:53:58.295Z,22.42
2019-02-12T01:54:58.296Z,22.42
2019-02-12T01:55:58.301Z,22.42
2019-02-12T01:56:58.302Z,22.52
2019-02-12T01:57:58.305Z,22.33
2019-02-12T01:58:58.309Z,22.33
2019-02-12T01:59:58.311Z,22.42
2019-02-12T02:00:58.314Z,22.42
2019-02-12T02:01:58.314Z,22.42
2019-02-12T02:02:58.321Z,22.42
2019-02-12T02:03:58.323Z,22.52
2019-02-12T02:04:58.326Z,22.52
2019-02-12T02:05:58.335Z,22.42
2019-02-12T02:06:58.332Z,22.52
2019-02-12T02:07:58.335Z,22.33
2019-02-12T02:08:58.345Z,22.52
2019-02-12T02:09:58.341Z,22.52
2019-02-12T02:10:58.344Z,22.42
2019-02-12T02:11:58.347Z,22.42
2019-02-12T02:12:58.351Z,22.52
2019-02-12T02:13:58.354Z,22.42
2019-02-12T02:14:58.356Z,22.42
2019-02-12T02:15:58.359Z,22.52
2019-02-12T02:16:58.363Z,22.62
2019-02-12T02:17:58.365Z,22.52
2019-02-12T02:18:58.368Z,22.52
2019-02-12T02:19:58.371Z,22.52
2019-02-12T02:20:58.374Z,22.52
2019-02-12T02:21:58.377Z,22.52
2019-02-12T02:22:58.380Z,22.52
2019-02-12T02:23:58.384Z,22.42
2019-02-12T02:24:58.386Z,22.62
2019-02-12T02:25:58.390Z,22.52
2019-02-12T02:26:58.392Z,22.52
2019-02-12T02:27:58.396Z,22.42
2019-02-12T02:28:58.400Z,22.42
2019-02-12T02:29:58.402Z,22.52
2019-02-12T02:30:58.404Z,22.42
2019-02-12T02:31:58.408Z,22.52
2019-02-12T02:32:58.411Z,22.52
2019-02-12T02:33:58.417Z,22.33
2019-02-12T02:34:58.452Z,22.52
2019-02-12T02:35:58.419Z,22.52
2019-02-12T02:36:58.422Z,22.52
2019-02-12T02:37:58.426Z,22.52
2019-02-12T02:38:58.429Z,22.52
2019-02-12T02:39:58.436Z,22.33
2019-02-12T02:40:58.438Z,22.42
2019-02-12T02:41:58.438Z,22.62
2019-02-12T02:42:58.443Z,22.42
2019-02-12T02:43:58.443Z,22.33
2019-02-12T02:44:58.446Z,22.62
2019-02-12T02:45:58.451Z,22.42
2019-02-12T02:46:58.452Z,22.52
2019-02-12T02:47:58.483Z,22.52
2019-02-12T02:48:58.457Z,22.42
2019-02-12T02:49:58.462Z,22.52
2019-02-12T02:50:58.463Z,22.42
2019-02-12T02:51:58.467Z,22.52
2019-02-12T02:52:58.475Z,22.52
2019-02-12T02:53:58.475Z,22.52
2019-02-12T02:54:58.477Z,22.42
2019-02-12T02:55:58.479Z,22.52
2019-02-12T02:56:58.484Z,22.42
2019-02-12T02:57:58.486Z,22.42
2019-02-12T02:58:58.488Z,22.42
2019-02-12T02:59:58.491Z,22.52
2019-02-12T03:00:58.495Z,22.52
2019-02-12T03:01:58.498Z,22.23
2019-02-12T03:02:58.501Z,22.42
2019-02-12T03:03:58.507Z,22.42
2019-02-12T03:04:58.509Z,22.23
2019-02-12T03:05:58.512Z,22.62
2019-02-12T03:06:58.517Z,22.52
2019-02-12T03:07:58.515Z,22.52
2019-02-12T03:08:58.517Z,22.52
2019-02-12T03:09:58.524Z,22.42
2019-02-12T03:10:58.526Z,22.52
2019-02-12T03:11:58.537Z,22.42
2019-02-12T03:12:58.531Z,22.72
2019-02-12T03:13:58.534Z,22.52
2019-02-12T03:14:58.536Z,22.52
2019-02-12T03:15:58.542Z,22.52
2019-02-12T03:16:58.542Z,22.52
2019-02-12T03:17:58.548Z,22.62
2019-02-12T03:18:58.548Z,22.52
2019-02-12T03:19:58.553Z,22.52
2019-02-12T03:20:58.556Z,22.62
2019-02-12T03:22:03.667Z,22.81
2019-02-12T03:22:58.561Z,22.52
2019-02-12T03:23:58.570Z,22.52
2019-02-12T03:24:58.572Z,22.81
2019-02-12T03:25:58.573Z,22.52
2019-02-12T03:26:58.578Z,22.42
2019-02-12T03:27:58.576Z,22.62
2019-02-12T03:28:58.579Z,22.62
2019-02-12T03:29:58.585Z,22.72
2019-02-12T03:30:58.586Z,22.62
2019-02-12T03:31:58.603Z,22.62
2019-02-12T03:32:58.596Z,22.62
2019-02-12T03:33:58.608Z,22.62
2019-02-12T03:34:58.597Z,22.72
2019-02-12T03:35:58.602Z,22.62
2019-02-12T03:36:58.602Z,22.72
2019-02-12T03:37:58.615Z,22.72
2019-02-12T03:38:58.611Z,22.62
2019-02-12T03:39:58.613Z,22.62
2019-02-12T03:40:58.615Z,22.62
2019-02-12T03:41:58.618Z,22.62
2019-02-12T03:42:58.634Z,22.62
2019-02-12T03:43:58.627Z,22.72
2019-02-12T03:44:58.627Z,22.72
2019-02-12T03:45:58.630Z,22.62
2019-02-12T03:46:58.633Z,22.72
2019-02-12T03:47:58.636Z,22.72
2019-02-12T03:48:58.645Z,22.72
2019-02-12T03:49:58.643Z,22.72
2019-02-12T03:50:58.646Z,22.62
2019-02-12T03:51:58.649Z,22.72
2019-02-12T03:52:58.651Z,22.72
2019-02-12T03:53:58.656Z,22.72
2019-02-12T03:54:58.658Z,22.62
2019-02-12T03:55:58.661Z,22.62
2019-02-12T03:56:58.663Z,22.62
2019-02-12T03:57:58.671Z,22.62
2019-02-12T03:58:58.670Z,22.72
2019-02-12T03:59:58.672Z,22.72
2019-02-12T04:00:58.675Z,22.62
2019-02-12T04:01:58.679Z,22.62
2019-02-12T04:02:58.681Z,22.52
2019-02-12T04:03:58.685Z,22.62
2019-02-12T04:04:58.687Z,22.81
2019-02-12T04:05:58.692Z,22.81
2019-02-12T04:06:58.693Z,22.72
2019-02-12T04:07:58.696Z,22.62
2019-02-12T04:08:58.703Z,22.72
2019-02-12T04:09:58.704Z,22.62
2019-02-12T04:10:58.705Z,22.72
2019-02-12T04:11:58.708Z,22.62
2019-02-12T04:12:58.715Z,22.62
2019-02-12T04:13:58.726Z,22.81
2019-02-12T04:14:58.717Z,22.72
2019-02-12T04:15:58.721Z,22.62
2019-02-12T04:16:58.724Z,22.62
2019-02-12T04:17:58.729Z,22.62
2019-02-12T04:18:58.729Z,22.62
2019-02-12T04:19:58.733Z,22.81
2019-02-12T04:20:58.742Z,22.72
2019-02-12T04:21:58.748Z,22.62
2019-02-12T04:22:58.742Z,22.62
2019-02-12T04:23:58.745Z,22.62
2019-02-12T04:24:58.748Z,22.72
2019-02-12T04:25:58.751Z,22.72
2019-02-12T04:26:58.754Z,22.72
2019-02-12T04:27:58.766Z,22.62
2019-02-12T04:28:58.761Z,22.62
2019-02-12T04:29:58.763Z,22.62
2019-02-12T04:30:58.770Z,22.72
2019-02-12T04:31:58.769Z,22.72
2019-02-12T04:32:58.773Z,22.72
2019-02-12T04:33:58.776Z,22.81
2019-02-12T04:34:58.778Z,22.72
2019-02-12T04:35:58.781Z,22.72
2019-02-12T04:36:58.786Z,22.81
2019-02-12T04:37:58.795Z,22.81
2019-02-12T04:38:58.793Z,22.72
2019-02-12T04:39:58.793Z,22.72
2019-02-12T04:40:58.796Z,22.72
2019-02-12T04:41:58.800Z,22.72
2019-02-12T04:42:58.806Z,22.72
2019-02-12T04:43:58.806Z,22.72
2019-02-12T04:44:58.808Z,22.72
2019-02-12T04:45:58.814Z,22.81
2019-02-12T04:46:58.815Z,22.72
2019-02-12T04:47:58.817Z,22.72
2019-02-12T04:48:58.821Z,22.72
2019-02-12T04:49:58.823Z,22.72
2019-02-12T04:50:58.826Z,22.72
2019-02-12T04:51:58.830Z,22.72
2019-02-12T04:52:58.834Z,22.72
2019-02-12T04:53:58.836Z,22.62
2019-02-12T04:54:58.841Z,22.72
2019-02-12T04:55:58.839Z,22.81
2019-02-12T04:56:58.844Z,22.62
2019-02-12T04:57:58.847Z,22.72
2019-02-12T04:58:58.849Z,22.72
2019-02-12T04:59:58.854Z,22.72
2019-02-12T05:00:59.489Z,22.72
2019-02-12T05:01:58.860Z,22.72
2019-02-12T05:02:58.862Z,22.62
2019-02-12T05:03:58.865Z,22.72
2019-02-12T05:04:58.880Z,22.72
2019-02-12T05:05:58.872Z,22.62
2019-02-12T05:06:58.874Z,22.81
2019-02-12T05:07:58.887Z,22.81
2019-02-12T05:08:58.887Z,23.00
2019-02-12T05:09:58.885Z,22.72
2019-02-12T05:10:58.886Z,23.00
2019-02-12T05:11:58.894Z,22.81
2019-02-12T05:12:58.894Z,22.81
2019-02-12T05:13:58.896Z,22.62
2019-02-12T05:14:58.899Z,22.81
2019-02-12T05:15:58.901Z,22.81
2019-02-12T05:16:58.904Z,22.81
2019-02-12T05:17:58.908Z,22.72
2019-02-12T05:18:58.911Z,23.00
2019-02-12T05:19:58.913Z,22.81
2019-02-12T05:20:58.916Z,22.81
2019-02-12T05:21:58.919Z,22.72
2019-02-12T05:22:58.923Z,22.72
2019-02-12T05:23:59.200Z,22.81
2019-02-12T05:24:58.959Z,22.72
2019-02-12T05:25:58.933Z,22.91
2019-02-12T05:26:58.937Z,22.62
2019-02-12T05:27:58.969Z,22.91
2019-02-12T05:28:58.945Z,22.81
2019-02-12T05:29:58.945Z,22.72
2019-02-12T05:30:58.951Z,22.81
2019-02-12T05:31:58.951Z,22.62
2019-02-12T05:32:58.952Z,22.81
2019-02-12T05:33:58.959Z,22.72
2019-02-12T05:34:58.964Z,22.81
2019-02-12T05:35:58.964Z,22.62
2019-02-12T05:36:58.965Z,22.33
2019-02-12T05:37:58.970Z,21.75
2019-02-12T05:38:58.970Z,21.65
2019-02-12T05:39:58.973Z,21.26
2019-02-12T05:40:58.985Z,21.06
2019-02-12T05:41:58.980Z,20.87
2019-02-12T05:42:58.983Z,20.77
2019-02-12T05:43:58.986Z,20.97
2019-02-12T05:44:58.989Z,20.77
2019-02-12T05:45:58.993Z,20.58
2019-02-12T05:46:58.994Z,20.39
2019-02-12T05:47:58.998Z,20.29
2019-02-12T05:48:59.001Z,20.19
2019-02-12T05:49:59.005Z,20.00
2019-02-12T05:50:59.006Z,20.29
2019-02-12T05:51:59.011Z,20.00
2019-02-12T05:52:59.013Z,20.00
2019-02-12T05:53:59.017Z,19.91
2019-02-12T05:54:59.019Z,19.80
2019-02-12T05:55:59.022Z,19.80
2019-02-12T05:56:59.028Z,20.09
2019-02-12T05:57:59.042Z,20.19
2019-02-12T05:58:59.033Z,20.19
2019-02-12T05:59:59.038Z,20.09
2019-02-12T06:00:59.043Z,20.00
2019-02-12T06:01:59.057Z,19.71
2019-02-12T06:02:59.050Z,19.32
2019-02-12T06:03:59.047Z,19.61
2019-02-12T06:04:59.053Z,18.93
2019-02-12T06:05:59.053Z,19.12
2019-02-12T06:06:59.055Z,18.93
2019-02-12T06:07:59.062Z,18.83
2019-02-12T06:08:59.062Z,18.73
2019-02-12T06:09:59.066Z,18.83
2019-02-12T06:10:59.068Z,18.83
2019-02-12T06:11:59.073Z,18.93
2019-02-12T06:12:59.074Z,18.84
2019-02-12T06:13:59.076Z,18.93
2019-02-12T06:14:59.082Z,18.93
2019-02-12T06:15:59.083Z,18.83
2019-02-12T06:16:59.095Z,18.64
2019-02-12T06:17:59.099Z,18.94
2019-02-12T06:18:59.092Z,19.23
2019-02-12T06:19:59.096Z,18.94
2019-02-12T06:20:59.099Z,18.94
2019-02-12T06:21:59.103Z,18.74
2019-02-12T06:23:03.653Z,18.54
2019-02-12T06:23:59.105Z,18.64
2019-02-12T06:24:59.111Z,18.55
2019-02-12T06:25:59.116Z,18.54
2019-02-12T06:26:59.117Z,18.55
2019-02-12T06:27:59.120Z,18.26
2019-02-12T06:28:59.121Z,18.35
2019-02-12T06:29:59.137Z,18.15
2019-02-12T06:30:59.130Z,18.35
2019-02-12T06:31:59.137Z,18.65
2019-02-12T06:33:07.270Z,19.13
2019-02-12T06:33:59.139Z,19.13
2019-02-12T06:34:59.141Z,19.23
2019-02-12T06:35:59.145Z,18.94
2019-02-12T06:36:59.160Z,19.42
2019-02-12T06:37:59.157Z,19.62
2019-02-12T06:38:59.160Z,19.62
2019-02-12T06:39:59.158Z,19.91
2019-02-12T06:40:59.165Z,20.10
2019-02-12T06:41:59.164Z,19.91
2019-02-12T06:42:59.169Z,20.01
2019-02-12T06:43:59.170Z,19.91
2019-02-12T06:44:59.173Z,19.62
2019-02-12T06:45:59.179Z,19.42
2019-02-12T06:46:59.180Z,19.62
2019-02-12T06:47:59.181Z,19.71
2019-02-12T06:48:59.185Z,19.71
2019-02-12T06:49:59.189Z,20.01
2019-02-12T06:50:59.191Z,19.71
2019-02-12T06:51:59.196Z,19.62
2019-02-12T06:52:59.209Z,19.71
2019-02-12T06:53:59.204Z,19.81
2019-02-12T06:54:59.204Z,20.01
2019-02-12T06:55:59.213Z,19.81
2019-02-12T06:56:59.212Z,20.39
2019-02-12T06:57:59.217Z,20.39
2019-02-12T06:58:59.228Z,19.81
2019-02-12T06:59:59.221Z,20.01
2019-02-12T07:00:59.229Z,19.91
2019-02-12T07:01:59.233Z,20.10
2019-02-12T07:02:59.230Z,19.81
2019-02-12T07:03:59.235Z,19.71
2019-02-12T07:04:59.238Z,19.42
2019-02-12T07:05:59.241Z,19.52
2019-02-12T07:06:59.245Z,19.42
2019-02-12T07:07:59.246Z,19.62
2019-02-12T07:08:59.248Z,19.71
2019-02-12T07:09:59.254Z,19.62
2019-02-12T07:10:59.255Z,19.71
2019-02-12T07:11:59.273Z,19.71
2019-02-12T07:12:59.265Z,19.71
2019-02-12T07:13:59.267Z,19.62
2019-02-12T07:14:59.269Z,19.32
2019-02-12T07:15:59.271Z,19.52
2019-02-12T07:16:59.275Z,19.62
2019-02-12T07:17:59.277Z,19.71
2019-02-12T07:18:59.290Z,19.62
2019-02-12T07:19:59.284Z,19.62
2019-02-12T07:20:59.287Z,19.81
2019-02-12T07:21:59.289Z,19.71
2019-02-12T07:22:59.293Z,19.52
2019-02-12T07:23:59.297Z,19.42
2019-02-12T07:24:59.301Z,19.52
2019-02-12T07:25:59.303Z,19.42
2019-02-12T07:26:59.305Z,19.71
2019-02-12T07:27:59.310Z,19.71
2019-02-12T07:28:59.379Z,19.81
2019-02-12T07:29:59.315Z,19.71
2019-02-12T07:30:59.324Z,19.71
2019-02-12T07:31:59.331Z,19.71
2019-02-12T07:32:59.328Z,19.81
2019-02-12T07:33:59.341Z,19.71
2019-02-12T07:34:59.331Z,19.62
2019-02-12T07:35:59.337Z,19.71
2019-02-12T07:36:59.342Z,19.62
2019-02-12T07:37:59.350Z,19.42
2019-02-12T07:38:59.343Z,19.52
2019-02-12T07:39:59.355Z,19.52
2019-02-12T07:40:59.354Z,19.42
2019-02-12T07:41:59.364Z,19.32
2019-02-12T07:42:59.356Z,19.32
2019-02-12T07:43:59.360Z,19.52
2019-02-12T07:44:59.425Z,19.52
2019-02-12T07:45:59.368Z,19.52
2019-02-12T07:46:59.370Z,19.42
2019-02-12T07:47:59.406Z,19.52
2019-02-12T07:48:59.377Z,19.71
2019-02-12T07:49:59.383Z,19.62
2019-02-12T07:50:59.385Z,19.52
2019-02-12T07:51:59.393Z,19.62
2019-02-12T07:52:59.393Z,19.62
2019-02-12T07:53:59.394Z,19.71
2019-02-12T07:54:59.409Z,19.71
2019-02-12T07:55:59.401Z,19.71
2019-02-12T07:56:59.403Z,19.71
2019-02-12T07:57:59.408Z,19.71
2019-02-12T07:58:59.412Z,19.71
2019-02-12T07:59:59.415Z,19.62
2019-02-12T08:00:59.415Z,19.81
2019-02-12T08:01:59.421Z,19.71
2019-02-12T08:02:59.422Z,19.71
2019-02-12T08:03:59.425Z,19.81
2019-02-12T08:04:59.428Z,20.10
2019-02-12T08:05:59.433Z,20.10
2019-02-12T08:06:59.435Z,20.30
2019-02-12T08:07:59.438Z,20.39
2019-02-12T08:08:59.441Z,20.49
2019-02-12T08:09:59.450Z,20.39
2019-02-12T08:10:59.449Z,20.59
2019-02-12T08:11:59.452Z,20.78
2019-02-12T08:12:59.455Z,20.78
2019-02-12T08:13:59.461Z,20.98
2019-02-12T08:14:59.464Z,20.98
2019-02-12T08:15:59.476Z,20.98
2019-02-12T08:16:59.471Z,20.78
2019-02-12T08:17:59.479Z,21.08
2019-02-12T08:18:59.474Z,20.89
2019-02-12T08:19:59.477Z,20.98
2019-02-12T08:20:59.481Z,20.99
2019-02-12T08:21:59.489Z,20.79
2019-02-12T08:22:59.496Z,20.79
2019-02-12T08:23:59.502Z,20.49
2019-02-12T08:24:59.507Z,20.68
2019-02-12T08:25:59.497Z,20.89
2019-02-12T08:26:59.518Z,20.78
2019-02-12T08:27:59.503Z,20.79
2019-02-12T08:28:59.508Z,20.89
2019-02-12T08:29:59.510Z,20.68
2019-02-12T08:30:59.515Z,20.49
2019-02-12T08:31:59.516Z,20.79
2019-02-12T08:32:59.521Z,20.50
2019-02-12T08:33:59.523Z,20.89
2019-02-12T08:34:59.528Z,20.49
2019-02-12T08:35:59.531Z,20.59
2019-02-12T08:36:59.541Z,20.79
2019-02-12T08:37:59.542Z,20.88
2019-02-12T08:38:59.544Z,20.79
2019-02-12T08:39:59.553Z,20.59
2019-02-12T08:40:59.551Z,20.50
2019-02-12T08:41:59.551Z,20.78
2019-02-12T08:42:59.552Z,20.50
2019-02-12T08:43:59.559Z,20.40
2019-02-12T08:44:59.560Z,20.50
2019-02-12T08:45:59.566Z,20.50
2019-02-12T08:46:59.565Z,20.50
2019-02-12T08:47:59.573Z,20.70
2019-02-12T08:48:59.573Z,20.99
2019-02-12T08:49:59.578Z,20.89
2019-02-12T08:50:59.591Z,20.89
2019-02-12T08:51:59.584Z,20.79
2019-02-12T08:52:59.586Z,20.40
2019-02-12T08:53:59.594Z,20.40
2019-02-12T08:54:59.590Z,20.79
2019-02-12T08:55:59.596Z,20.50
2019-02-12T08:56:59.600Z,20.89
2019-02-12T08:57:59.605Z,20.70
2019-02-12T08:58:59.609Z,20.40
2019-02-12T08:59:59.608Z,20.89
2019-02-12T09:00:59.632Z,20.50
2019-02-12T09:01:59.622Z,20.50
2019-02-12T09:02:59.621Z,20.79
2019-02-12T09:03:59.623Z,20.79
2019-02-12T09:04:59.626Z,20.50
2019-02-12T09:05:59.639Z,20.89
2019-02-12T09:06:59.631Z,20.79
2019-02-12T09:07:59.636Z,20.60
2019-02-12T09:08:59.639Z,20.60
2019-02-12T09:09:59.645Z,20.40
2019-02-12T09:10:59.645Z,20.50
2019-02-12T09:11:59.652Z,20.89
2019-02-12T09:12:59.653Z,20.50
2019-02-12T09:13:59.656Z,20.60
2019-02-12T09:14:59.658Z,20.79
2019-02-12T09:15:59.669Z,20.70
2019-02-12T09:16:59.667Z,20.99
2019-02-12T09:17:59.672Z,20.99
2019-02-12T09:18:59.674Z,20.79
2019-02-12T09:19:59.678Z,20.79
2019-02-12T09:20:59.680Z,20.70
2019-02-12T09:21:59.685Z,20.79
2019-02-12T09:22:59.686Z,20.89
2019-02-12T09:24:02.430Z,20.60
2019-02-12T09:24:59.695Z,20.99
2019-02-12T09:25:59.697Z,20.89
2019-02-12T09:26:59.699Z,20.50
2019-02-12T09:27:59.701Z,20.79
2019-02-12T09:28:59.706Z,20.60
2019-02-12T09:29:59.756Z,20.70
2019-02-12T09:30:59.713Z,20.79
2019-02-12T09:31:59.715Z,20.79
2019-02-12T09:32:59.719Z,20.40
2019-02-12T09:33:59.820Z,21.09
2019-02-12T09:34:59.724Z,20.79
2019-02-12T09:35:59.729Z,20.79
2019-02-12T09:36:59.736Z,20.79
2019-02-12T09:37:59.738Z,20.79
2019-02-12T09:38:59.743Z,20.60
2019-02-12T09:39:59.743Z,20.79
2019-02-12T09:40:59.746Z,20.79
2019-02-12T09:41:59.750Z,20.70
2019-02-12T09:42:59.754Z,20.99
2019-02-12T09:43:59.756Z,20.99
2019-02-12T09:44:59.761Z,20.99
2019-02-12T09:45:59.766Z,20.99
2019-02-12T09:46:59.766Z,20.89
2019-02-12T09:47:59.774Z,20.70
2019-02-12T09:48:59.770Z,20.79
2019-02-12T09:49:59.776Z,20.79
2019-02-12T09:50:59.779Z,20.89
2019-02-12T09:51:59.781Z,20.89
2019-02-12T09:52:59.788Z,20.99
2019-02-12T09:54:08.435Z,20.89
2019-02-12T09:54:59.797Z,20.89
2019-02-12T09:55:59.799Z,20.50
2019-02-12T09:56:59.801Z,20.50
2019-02-12T09:57:59.803Z,20.40
2019-02-12T09:58:59.811Z,20.50
2019-02-12T09:59:59.810Z,20.60
2019-02-12T10:00:59.814Z,20.60
2019-02-12T10:01:59.817Z,20.60
2019-02-12T10:02:59.820Z,20.60
2019-02-12T10:03:59.821Z,21.09
2019-02-12T10:04:59.827Z,20.99
2019-02-12T10:05:59.838Z,20.79
2019-02-12T10:06:59.846Z,20.79
2019-02-12T10:07:59.840Z,20.79
2019-02-12T10:08:59.852Z,20.79
2019-02-12T10:09:59.844Z,20.70
2019-02-12T10:10:59.851Z,20.79
2019-02-12T10:11:59.854Z,20.89
2019-02-12T10:12:59.854Z,20.99
2019-02-12T10:13:59.855Z,20.99
2019-02-12T10:14:59.864Z,20.99
2019-02-12T10:15:59.870Z,20.79
2019-02-12T10:16:59.867Z,20.99
2019-02-12T10:17:59.871Z,20.89
2019-02-12T10:18:59.875Z,21.09
2019-02-12T10:19:59.877Z,20.99
2019-02-12T10:20:59.881Z,20.89
2019-02-12T10:21:59.892Z,21.09
2019-02-12T10:22:59.889Z,21.28
2019-02-12T10:23:59.891Z,21.28
2019-02-12T10:24:59.908Z,21.18
2019-02-12T10:25:59.913Z,21.09
2019-02-12T10:26:59.902Z,21.18
2019-02-12T10:27:59.907Z,21.28
2019-02-12T10:28:59.911Z,21.18
2019-02-12T10:29:59.915Z,21.28
2019-02-12T10:30:59.916Z,21.67
2019-02-12T10:32:08.204Z,21.67
2019-02-12T10:32:59.922Z,21.47
2019-02-12T10:33:59.925Z,21.57
2019-02-12T10:34:59.928Z,21.57
2019-02-12T10:35:59.936Z,21.47
2019-02-12T10:36:59.939Z,21.57
2019-02-12T10:37:59.940Z,21.37
2019-02-12T10:38:59.942Z,21.37
2019-02-12T10:39:59.946Z,21.28
2019-02-12T10:40:59.948Z,21.37
2019-02-12T10:41:59.961Z,21.37
2019-02-12T10:42:59.956Z,21.47
2019-02-12T10:43:59.960Z,21.28
2019-02-12T10:44:59.964Z,21.37
2019-02-12T10:45:59.967Z,21.47
2019-02-12T10:46:59.973Z,21.47
2019-02-12T10:47:59.974Z,21.47
2019-02-12T10:48:59.977Z,21.37
2019-02-12T10:49:59.982Z,21.37
2019-02-12T10:50:59.986Z,21.28
2019-02-12T10:51:59.984Z,21.47
2019-02-12T10:52:59.993Z,21.57
2019-02-12T10:53:59.994Z,21.67
2019-02-12T10:54:59.998Z,21.57
2019-02-12T10:55:59.998Z,21.77
2019-02-12T10:57:00.019Z,21.57
2019-02-12T10:58:00.018Z,21.57
2019-02-12T10:59:00.021Z,21.86
2019-02-12T11:00:00.020Z,21.57
2019-02-12T11:01:00.018Z,21.77
2019-02-12T11:02:00.021Z,21.57
2019-02-12T11:03:00.023Z,21.67
2019-02-12T11:04:00.026Z,21.67
2019-02-12T11:05:00.030Z,21.67
2019-02-12T11:06:00.034Z,21.57
2019-02-12T11:07:00.039Z,21.67
2019-02-12T11:08:00.040Z,21.67
2019-02-12T11:09:00.058Z,21.86
2019-02-12T11:10:00.048Z,21.77
2019-02-12T11:11:00.050Z,21.57
2019-02-12T11:12:00.055Z,21.67
2019-02-12T11:13:00.059Z,21.67
2019-02-12T11:14:00.060Z,21.77
2019-02-12T11:15:00.233Z,21.57
2019-02-12T11:16:00.072Z,21.86
2019-02-12T11:17:00.072Z,21.67
2019-02-12T11:18:00.080Z,21.67
2019-02-12T11:19:00.078Z,21.57
2019-02-12T11:20:00.088Z,21.77
2019-02-12T11:21:00.088Z,21.77
2019-02-12T11:22:00.096Z,21.67
2019-02-12T11:23:00.091Z,21.67
2019-02-12T11:24:00.096Z,21.67
2019-02-12T11:25:00.240Z,21.67
2019-02-12T11:26:00.107Z,21.67
2019-02-12T11:27:00.107Z,21.77
2019-02-12T11:28:00.109Z,21.47
2019-02-12T11:29:00.113Z,21.47
2019-02-12T11:30:00.134Z,21.57
2019-02-12T11:31:00.125Z,21.37
2019-02-12T11:32:00.122Z,21.57
2019-02-12T11:33:00.126Z,21.09
2019-02-12T11:34:00.131Z,21.18
2019-02-12T11:35:00.244Z,21.18
2019-02-12T11:36:00.137Z,21.18
2019-02-12T11:37:00.145Z,21.18
2019-02-12T11:38:00.150Z,21.28
2019-02-12T11:39:00.149Z,21.09
2019-02-12T11:40:00.214Z,21.28
2019-02-12T11:41:00.152Z,21.18
2019-02-12T11:42:00.168Z,21.09
2019-02-12T11:43:00.166Z,21.67
2019-02-12T11:44:00.165Z,21.67
2019-02-12T11:45:00.278Z,21.58
2019-02-12T11:46:00.172Z,21.48
2019-02-12T11:47:00.175Z,21.67
2019-02-12T11:48:00.178Z,21.67
2019-02-12T11:49:00.182Z,21.67
2019-02-12T11:50:00.304Z,21.57
2019-02-12T11:51:00.189Z,21.48
2019-02-12T11:52:00.195Z,21.37
2019-02-12T11:53:00.195Z,21.28
2019-02-12T11:54:00.200Z,21.57
2019-02-12T11:55:00.271Z,21.57
2019-02-12T11:56:00.207Z,21.29
2019-02-12T11:57:00.209Z,21.28
2019-02-12T11:58:00.215Z,21.28
2019-02-12T11:59:00.216Z,21.47
2019-02-12T12:00:00.247Z,21.09
2019-02-12T12:01:00.223Z,21.18
2019-02-12T12:02:00.227Z,21.19
2019-02-12T12:03:00.229Z,21.09
2019-02-12T12:04:00.253Z,21.29
2019-02-12T12:05:00.265Z,21.28
2019-02-12T12:06:00.242Z,21.28
2019-02-12T12:07:00.245Z,21.18
2019-02-12T12:08:00.247Z,21.18
2019-02-12T12:09:00.255Z,21.18
2019-02-12T12:10:00.256Z,21.18
2019-02-12T12:11:00.259Z,21.18
2019-02-12T12:12:00.264Z,21.18
2019-02-12T12:13:00.265Z,21.09
2019-02-12T12:14:00.270Z,21.09
2019-02-12T12:15:00.282Z,20.99
2019-02-12T12:16:00.279Z,21.09
2019-02-12T12:17:00.294Z,21.09
2019-02-12T12:18:00.282Z,21.18
2019-02-12T12:19:00.286Z,21.09
2019-02-12T12:20:00.308Z,20.89
2019-02-12T12:21:00.298Z,20.99
2019-02-12T12:22:00.296Z,20.89
2019-02-12T12:23:00.300Z,20.89
2019-02-12T12:24:00.303Z,20.99
2019-02-12T12:25:00.306Z,20.99
2019-02-12T12:26:00.310Z,20.89
2019-02-12T12:27:00.313Z,20.99
2019-02-12T12:28:00.317Z,20.79
2019-02-12T12:29:00.331Z,20.79
2019-02-12T12:30:00.341Z,20.99
2019-02-12T12:31:00.343Z,20.79
2019-02-12T12:32:00.331Z,20.89
2019-02-12T12:33:00.339Z,20.79
2019-02-12T12:34:00.338Z,20.79
2019-02-12T12:35:00.362Z,20.79
2019-02-12T12:36:00.345Z,20.60
2019-02-12T12:37:00.350Z,20.79
2019-02-12T12:38:00.353Z,21.18
2019-02-12T12:39:00.357Z,20.51
2019-02-12T12:40:00.359Z,20.80
2019-02-12T12:41:00.364Z,20.70
2019-02-12T12:42:00.367Z,20.50
2019-02-12T12:43:00.408Z,20.89
2019-02-12T12:44:00.374Z,20.79
2019-02-12T12:45:00.377Z,20.70
2019-02-12T12:46:00.380Z,20.79
2019-02-12T12:47:00.387Z,20.60
2019-02-12T12:48:00.387Z,20.89
2019-02-12T12:49:00.392Z,20.60
2019-02-12T12:50:00.397Z,20.50
2019-02-12T12:51:00.397Z,20.40
2019-02-12T12:52:00.421Z,20.40
2019-02-12T12:53:00.408Z,20.32